CheckWX is a tool to help pilots better visualize weather data.  It is not intended as a substitute for an official pre-flight weather briefing.

22:07:51 UTC

EHEH METAR
Eindhoven Airport
Eindhoven, The Netherlands
Current

13 mins ago

EHEH 202155Z AUTO 27004KT 240V320 9999 SCT270 19/13 Q1014 BLU
Observed
Jul-20 @ 21:55 UTC
Wind
  • 270° at 4 KTS
Visibility
10,000+ meters
Flight Rules
VFR
Cloud Levels
  • Scattered at 27,000' AGL
Temperature
19°C / 66°F
Dewpoint
13°C / 55°F
Humidity
68%
Altimeter
29.94" Hg
Pressure
1013.92 hPa
Previous

43 mins ago

EHEH 202125Z AUTO 24007KT 210V310 9999 NCD 20/13 Q1014 BLU 26008KT CAVOK
Observed
Jul-20 @ 21:25 UTC
Wind
  • 240° at 7 KTS
Visibility
10,000+ meters
Flight Rules
VFR
Cloud Levels
  • Clear skies
Temperature
20°C / 68°F
Dewpoint
13°C / 55°F
Humidity
64%
Altimeter
29.94" Hg
Pressure
1013.92 hPa
Previous

1 hour ago

EHEH 202055Z AUTO 24008KT 200V290 9999 NCD 20/13 Q1013 BLU 26008KT CAVOK
Observed
Jul-20 @ 20:55 UTC
Wind
  • 240° at 8 KTS
Visibility
10,000+ meters
Flight Rules
VFR
Cloud Levels
  • Clear skies
Temperature
20°C / 68°F
Dewpoint
13°C / 55°F
Humidity
64%
Altimeter
29.91" Hg
Pressure
1012.92 hPa